sensor_id;sensor_type;location;lat;lon;timestamp;temperature;humidity
14769;DHT22;7476;49.404;11.152;2023-08-06T00:00:56;14.70;99.90
14769;DHT22;7476;49.404;11.152;2023-08-06T00:03:23;14.70;99.90
14769;DHT22;7476;49.404;11.152;2023-08-06T00:05:52;14.70;99.90
14769;DHT22;7476;49.404;11.152;2023-08-06T00:08:18;14.70;99.90
14769;DHT22;7476;49.404;11.152;2023-08-06T00:10:47;14.60;99.90
14769;DHT22;7476;49.404;11.152;2023-08-06T00:13:14;14.60;99.90
14769;DHT22;7476;49.404;11.152;2023-08-06T00:15:40;14.60;99.90
14769;DHT22;7476;49.404;11.152;2023-08-06T00:18:07;14.50;99.90
14769;DHT22;7476;49.404;11.152;2023-08-06T00:20:34;14.50;99.90
14769;DHT22;7476;49.404;11.152;2023-08-06T00:23:02;14.50;99.90
14769;DHT22;7476;49.404;11.152;2023-08-06T00:25:28;14.50;99.90
14769;DHT22;7476;49.404;11.152;2023-08-06T00:27:55;14.40;99.90
14769;DHT22;7476;49.404;11.152;2023-08-06T00:30:22;14.40;99.90
14769;DHT22;7476;49.404;11.152;2023-08-06T00:32:48;14.40;99.90
14769;DHT22;7476;49.404;11.152;2023-08-06T00:35:15;14.30;99.90
14769;DHT22;7476;49.404;11.152;2023-08-06T00:37:42;14.30;99.90
14769;DHT22;7476;49.404;11.152;2023-08-06T00:40:10;14.30;99.90
14769;DHT22;7476;49.404;11.152;2023-08-06T00:42:37;14.30;99.90
14769;DHT22;7476;49.404;11.152;2023-08-06T00:45:04;14.20;99.90
14769;DHT22;7476;49.404;11.152;2023-08-06T00:47:31;14.20;99.90
14769;DHT22;7476;49.404;11.152;2023-08-06T00:49:57;14.20;99.90
14769;DHT22;7476;49.404;11.152;2023-08-06T00:52:24;14.10;99.90
14769;DHT22;7476;49.404;11.152;2023-08-06T00:54:51;14.10;99.90
14769;DHT22;7476;49.404;11.152;2023-08-06T00:57:20;14.10;99.90
14769;DHT22;7476;49.404;11.152;2023-08-06T00:59:48;14.10;99.90
14769;DHT22;7476;49.404;11.152;2023-08-06T01:02:15;14.20;99.90
14769;DHT22;7476;49.404;11.152;2023-08-06T01:04:42;14.20;99.90
14769;DHT22;7476;49.404;11.152;2023-08-06T01:07:19;14.20;99.90
14769;DHT22;7476;49.404;11.152;2023-08-06T01:09:56;14.20;99.90
14769;DHT22;7476;49.404;11.152;2023-08-06T01:12:30;14.20;99.90
14769;DHT22;7476;49.404;11.152;2023-08-06T01:15:04;14.10;99.90
14769;DHT22;7476;49.404;11.152;2023-08-06T01:17:34;14.10;99.90
14769;DHT22;7476;49.404;11.152;2023-08-06T01:20:02;14.10;99.90
14769;DHT22;7476;49.404;11.152;2023-08-06T01:22:30;14.10;99.90
14769;DHT22;7476;49.404;11.152;2023-08-06T01:24:57;14.10;99.90
14769;DHT22;7476;49.404;11.152;2023-08-06T01:27:28;14.00;99.90
14769;DHT22;7476;49.404;11.152;2023-08-06T01:30:02;14.00;99.90
14769;DHT22;7476;49.404;11.152;2023-08-06T01:32:31;14.00;99.90
14769;DHT22;7476;49.404;11.152;2023-08-06T01:34:59;14.00;99.90
14769;DHT22;7476;49.404;11.152;2023-08-06T01:37:27;13.90;99.90
14769;DHT22;7476;49.404;11.152;2023-08-06T01:39:55;13.90;99.90
14769;DHT22;7476;49.404;11.152;2023-08-06T01:42:22;13.80;99.90
14769;DHT22;7476;49.404;11.152;2023-08-06T01:44:49;13.80;99.90
14769;DHT22;7476;49.404;11.152;2023-08-06T01:47:15;13.80;99.90
14769;DHT22;7476;49.404;11.152;2023-08-06T01:49:42;13.90;99.90
14769;DHT22;7476;49.404;11.152;2023-08-06T01:52:09;13.90;99.90
14769;DHT22;7476;49.404;11.152;2023-08-06T01:54:35;13.90;99.90
14769;DHT22;7476;49.404;11.152;2023-08-06T01:57:04;13.90;99.90
14769;DHT22;7476;49.404;11.152;2023-08-06T01:59:31;13.90;99.90
14769;DHT22;7476;49.404;11.152;2023-08-06T02:01:57;13.90;99.90
14769;DHT22;7476;49.404;11.152;2023-08-06T02:04:24;13.90;99.90
14769;DHT22;7476;49.404;11.152;2023-08-06T02:06:51;13.90;99.90
14769;DHT22;7476;49.404;11.152;2023-08-06T02:09:17;13.90;99.90
14769;DHT22;7476;49.404;11.152;2023-08-06T02:11:44;13.90;99.90
14769;DHT22;7476;49.404;11.152;2023-08-06T02:14:12;13.90;99.90
14769;DHT22;7476;49.404;11.152;2023-08-06T02:16:39;13.90;99.90
14769;DHT22;7476;49.404;11.152;2023-08-06T02:19:05;13.90;99.90
14769;DHT22;7476;49.404;11.152;2023-08-06T02:21:32;13.90;99.90
14769;DHT22;7476;49.404;11.152;2023-08-06T02:23:59;13.90;99.90
14769;DHT22;7476;49.404;11.152;2023-08-06T02:26:26;13.90;99.90
14769;DHT22;7476;49.404;11.152;2023-08-06T02:28:52;13.80;99.90
14769;DHT22;7476;49.404;11.152;2023-08-06T02:31:20;13.80;99.90
14769;DHT22;7476;49.404;11.152;2023-08-06T02:33:47;13.90;99.90
14769;DHT22;7476;49.404;11.152;2023-08-06T02:36:14;13.90;99.90
14769;DHT22;7476;49.404;11.152;2023-08-06T02:38:40;13.90;99.90
14769;DHT22;7476;49.404;11.152;2023-08-06T02:41:07;13.90;99.90
14769;DHT22;7476;49.404;11.152;2023-08-06T02:43:34;13.90;99.90
14769;DHT22;7476;49.404;11.152;2023-08-06T02:46:01;13.90;99.90
14769;DHT22;7476;49.404;11.152;2023-08-06T02:48:29;13.90;99.90
14769;DHT22;7476;49.404;11.152;2023-08-06T02:50:57;13.90;99.90
14769;DHT22;7476;49.404;11.152;2023-08-06T02:53:25;13.80;99.90
14769;DHT22;7476;49.404;11.152;2023-08-06T02:55:52;13.80;99.90
14769;DHT22;7476;49.404;11.152;2023-08-06T02:58:18;13.80;99.90
14769;DHT22;7476;49.404;11.152;2023-08-06T03:00:59;13.70;99.90
14769;DHT22;7476;49.404;11.152;2023-08-06T03:03:25;13.70;99.90
14769;DHT22;7476;49.404;11.152;2023-08-06T03:05:53;13.70;99.90
14769;DHT22;7476;49.404;11.152;2023-08-06T03:08:20;13.60;99.90
14769;DHT22;7476;49.404;11.152;2023-08-06T03:10:48;13.60;99.90
14769;DHT22;7476;49.404;11.152;2023-08-06T03:13:14;13.60;99.90
14769;DHT22;7476;49.404;11.152;2023-08-06T03:15:41;13.60;99.90
14769;DHT22;7476;49.404;11.152;2023-08-06T03:18:08;13.60;99.90
14769;DHT22;7476;49.404;11.152;2023-08-06T03:20:34;13.60;99.90
14769;DHT22;7476;49.404;11.152;2023-08-06T03:23:02;13.60;99.90
14769;DHT22;7476;49.404;11.152;2023-08-06T03:25:29;13.60;99.90
14769;DHT22;7476;49.404;11.152;2023-08-06T03:27:55;13.50;99.90
14769;DHT22;7476;49.404;11.152;2023-08-06T03:30:22;13.50;99.90
14769;DHT22;7476;49.404;11.152;2023-08-06T03:32:49;13.40;99.90
14769;DHT22;7476;49.404;11.152;2023-08-06T03:35:15;13.40;99.90
14769;DHT22;7476;49.404;11.152;2023-08-06T03:37:42;13.30;99.90
14769;DHT22;7476;49.404;11.152;2023-08-06T03:40:10;13.30;99.90
14769;DHT22;7476;49.404;11.152;2023-08-06T03:42:37;13.20;99.90
14769;DHT22;7476;49.404;11.152;2023-08-06T03:45:05;13.00;99.90
14769;DHT22;7476;49.404;11.152;2023-08-06T03:47:32;13.00;99.90
14769;DHT22;7476;49.404;11.152;2023-08-06T03:49:58;12.90;99.90
14769;DHT22;7476;49.404;11.152;2023-08-06T03:52:25;12.80;99.90
14769;DHT22;7476;49.404;11.152;2023-08-06T03:54:51;12.80;99.90
14769;DHT22;7476;49.404;11.152;2023-08-06T03:57:19;12.70;99.90
14769;DHT22;7476;49.404;11.152;2023-08-06T03:59:46;12.70;99.90
14769;DHT22;7476;49.404;11.152;2023-08-06T04:02:13;12.60;99.90
14769;DHT22;7476;49.404;11.152;2023-08-06T04:04:39;12.50;99.90
14769;DHT22;7476;49.404;11.152;2023-08-06T04:07:06;12.40;99.90
14769;DHT22;7476;49.404;11.152;2023-08-06T04:09:33;12.30;99.90
14769;DHT22;7476;49.404;11.152;2023-08-06T04:11:59;12.20;99.90
14769;DHT22;7476;49.404;11.152;2023-08-06T04:14:28;12.10;99.90
14769;DHT22;7476;49.404;11.152;2023-08-06T04:16:55;12.10;99.90
14769;DHT22;7476;49.404;11.152;2023-08-06T04:19:21;12.00;99.90
14769;DHT22;7476;49.404;11.152;2023-08-06T04:21:48;11.90;99.90
14769;DHT22;7476;49.404;11.152;2023-08-06T04:24:14;11.90;99.90
14769;DHT22;7476;49.404;11.152;2023-08-06T04:26:41;11.80;99.90
14769;DHT22;7476;49.404;11.152;2023-08-06T04:29:08;11.80;99.90
14769;DHT22;7476;49.404;11.152;2023-08-06T04:31:36;11.90;99.90
14769;DHT22;7476;49.404;11.152;2023-08-06T04:34:02;11.80;99.90
14769;DHT22;7476;49.404;11.152;2023-08-06T04:36:29;11.90;99.90
14769;DHT22;7476;49.404;11.152;2023-08-06T04:38:55;12.00;99.90
14769;DHT22;7476;49.404;11.152;2023-08-06T04:41:22;12.20;99.90
14769;DHT22;7476;49.404;11.152;2023-08-06T04:43:49;12.40;99.90
14769;DHT22;7476;49.404;11.152;2023-08-06T04:46:15;12.40;99.90
14769;DHT22;7476;49.404;11.152;2023-08-06T04:48:43;12.50;99.90
14769;DHT22;7476;49.404;11.152;2023-08-06T04:51:10;12.50;99.90
14769;DHT22;7476;49.404;11.152;2023-08-06T04:53:37;12.50;99.90
14769;DHT22;7476;49.404;11.152;2023-08-06T04:56:03;12.50;99.90
14769;DHT22;7476;49.404;11.152;2023-08-06T04:58:30;12.60;99.90
14769;DHT22;7476;49.404;11.152;2023-08-06T05:00:57;12.60;99.90
14769;DHT22;7476;49.404;11.152;2023-08-06T05:03:23;12.50;99.90
14769;DHT22;7476;49.404;11.152;2023-08-06T05:05:51;12.60;99.90
14769;DHT22;7476;49.404;11.152;2023-08-06T05:08:18;12.60;99.90
14769;DHT22;7476;49.404;11.152;2023-08-06T05:10:45;12.70;99.90
14769;DHT22;7476;49.404;11.152;2023-08-06T05:13:12;13.00;99.90
14769;DHT22;7476;49.404;11.152;2023-08-06T05:15:39;13.30;99.90
14769;DHT22;7476;49.404;11.152;2023-08-06T05:18:08;13.50;99.90
14769;DHT22;7476;49.404;11.152;2023-08-06T05:20:36;13.80;99.90
14769;DHT22;7476;49.404;11.152;2023-08-06T05:23:04;14.20;99.90
14769;DHT22;7476;49.404;11.152;2023-08-06T05:25:31;14.30;99.90
14769;DHT22;7476;49.404;11.152;2023-08-06T05:27:58;14.10;99.90
14769;DHT22;7476;49.404;11.152;2023-08-06T05:30:25;14.10;99.90
14769;DHT22;7476;49.404;11.152;2023-08-06T05:32:52;14.10;99.90
14769;DHT22;7476;49.404;11.152;2023-08-06T05:35:18;14.10;99.90
14769;DHT22;7476;49.404;11.152;2023-08-06T05:37:45;14.10;99.90
14769;DHT22;7476;49.404;11.152;2023-08-06T05:40:13;14.20;99.90
14769;DHT22;7476;49.404;11.152;2023-08-06T05:42:40;14.20;99.90
14769;DHT22;7476;49.404;11.152;2023-08-06T05:45:08;14.20;99.90
14769;DHT22;7476;49.404;11.152;2023-08-06T05:47:35;14.20;99.90
14769;DHT22;7476;49.404;11.152;2023-08-06T05:50:02;14.20;99.90
14769;DHT22;7476;49.404;11.152;2023-08-06T05:52:28;14.20;99.90
14769;DHT22;7476;49.404;11.152;2023-08-06T05:54:55;14.10;99.90
14769;DHT22;7476;49.404;11.152;2023-08-06T05:57:23;14.20;99.90
14769;DHT22;7476;49.404;11.152;2023-08-06T05:59:49;14.20;99.90
14769;DHT22;7476;49.404;11.152;2023-08-06T06:02:16;14.30;99.90
14769;DHT22;7476;49.404;11.152;2023-08-06T06:04:44;14.50;99.90
14769;DHT22;7476;49.404;11.152;2023-08-06T06:07:11;14.80;99.90
14769;DHT22;7476;49.404;11.152;2023-08-06T06:09:37;15.00;99.90
14769;DHT22;7476;49.404;11.152;2023-08-06T06:12:06;15.10;99.90
14769;DHT22;7476;49.404;11.152;2023-08-06T06:14:34;15.10;99.90
14769;DHT22;7476;49.404;11.152;2023-08-06T06:17:00;15.70;99.90
14769;DHT22;7476;49.404;11.152;2023-08-06T06:19:27;16.90;99.90
14769;DHT22;7476;49.404;11.152;2023-08-06T06:21:54;17.40;99.90
14769;DHT22;7476;49.404;11.152;2023-08-06T06:24:23;18.20;99.90
14769;DHT22;7476;49.404;11.152;2023-08-06T06:26:49;18.60;99.90
14769;DHT22;7476;49.404;11.152;2023-08-06T06:29:16;19.10;99.90
14769;DHT22;7476;49.404;11.152;2023-08-06T06:31:44;19.20;99.90
14769;DHT22;7476;49.404;11.152;2023-08-06T06:34:10;18.90;99.90
14769;DHT22;7476;49.404;11.152;2023-08-06T06:36:37;18.50;99.90
14769;DHT22;7476;49.404;11.152;2023-08-06T06:39:04;18.10;99.90
14769;DHT22;7476;49.404;11.152;2023-08-06T06:41:30;17.70;99.90
14769;DHT22;7476;49.404;11.152;2023-08-06T06:43:58;17.20;99.90
14769;DHT22;7476;49.404;11.152;2023-08-06T06:46:25;16.70;99.90
14769;DHT22;7476;49.404;11.152;2023-08-06T06:48:53;16.10;99.90
14769;DHT22;7476;49.404;11.152;2023-08-06T06:51:19;15.80;99.90
14769;DHT22;7476;49.404;11.152;2023-08-06T06:53:46;15.50;99.90
14769;DHT22;7476;49.404;11.152;2023-08-06T06:56:13;15.30;99.90
14769;DHT22;7476;49.404;11.152;2023-08-06T06:58:40;15.30;99.90
14769;DHT22;7476;49.404;11.152;2023-08-06T07:01:06;15.20;99.90
14769;DHT22;7476;49.404;11.152;2023-08-06T07:03:35;15.30;99.90
14769;DHT22;7476;49.404;11.152;2023-08-06T07:06:03;15.40;99.90
14769;DHT22;7476;49.404;11.152;2023-08-06T07:08:31;15.50;99.90
14769;DHT22;7476;49.404;11.152;2023-08-06T07:11:01;15.70;99.90
14769;DHT22;7476;49.404;11.152;2023-08-06T07:13:28;15.90;99.90
14769;DHT22;7476;49.404;11.152;2023-08-06T07:15:55;16.10;99.90
14769;DHT22;7476;49.404;11.152;2023-08-06T07:18:22;16.10;99.90
14769;DHT22;7476;49.404;11.152;2023-08-06T07:20:49;16.00;99.90
14769;DHT22;7476;49.404;11.152;2023-08-06T07:23:17;16.10;99.90
14769;DHT22;7476;49.404;11.152;2023-08-06T07:25:44;16.20;99.90
14769;DHT22;7476;49.404;11.152;2023-08-06T07:28:13;16.20;99.90
14769;DHT22;7476;49.404;11.152;2023-08-06T07:30:39;16.20;99.90
14769;DHT22;7476;49.404;11.152;2023-08-06T07:33:06;16.20;99.90
14769;DHT22;7476;49.404;11.152;2023-08-06T07:35:33;16.30;99.90
14769;DHT22;7476;49.404;11.152;2023-08-06T07:38:00;16.40;99.90
14769;DHT22;7476;49.404;11.152;2023-08-06T07:40:28;16.50;99.90
14769;DHT22;7476;49.404;11.152;2023-08-06T07:42:55;16.60;99.90
14769;DHT22;7476;49.404;11.152;2023-08-06T07:45:21;16.70;99.90
14769;DHT22;7476;49.404;11.152;2023-08-06T07:47:48;16.80;99.90
14769;DHT22;7476;49.404;11.152;2023-08-06T07:50:15;16.80;99.90
14769;DHT22;7476;49.404;11.152;2023-08-06T07:52:41;17.20;99.90
14769;DHT22;7476;49.404;11.152;2023-08-06T07:55:08;17.70;99.90
14769;DHT22;7476;49.404;11.152;2023-08-06T07:57:36;17.80;99.90
14769;DHT22;7476;49.404;11.152;2023-08-06T08:00:04;17.90;99.90
14769;DHT22;7476;49.404;11.152;2023-08-06T08:02:31;17.90;99.90
14769;DHT22;7476;49.404;11.152;2023-08-06T08:04:58;18.10;99.90
14769;DHT22;7476;49.404;11.152;2023-08-06T08:07:24;18.30;99.90
14769;DHT22;7476;49.404;11.152;2023-08-06T08:09:53;18.80;99.90
14769;DHT22;7476;49.404;11.152;2023-08-06T08:12:20;18.80;99.90
14769;DHT22;7476;49.404;11.152;2023-08-06T08:14:48;18.70;99.90
14769;DHT22;7476;49.404;11.152;2023-08-06T08:17:15;18.30;99.90
14769;DHT22;7476;49.404;11.152;2023-08-06T08:19:41;18.80;99.90
14769;DHT22;7476;49.404;11.152;2023-08-06T08:22:08;19.50;99.90
14769;DHT22;7476;49.404;11.152;2023-08-06T08:24:34;19.80;99.90
14769;DHT22;7476;49.404;11.152;2023-08-06T08:27:01;20.50;99.90
14769;DHT22;7476;49.404;11.152;2023-08-06T08:29:28;21.30;99.90
14769;DHT22;7476;49.404;11.152;2023-08-06T08:31:56;21.50;99.90
14769;DHT22;7476;49.404;11.152;2023-08-06T08:34:22;20.90;99.90
14769;DHT22;7476;49.404;11.152;2023-08-06T08:36:49;19.60;99.90
14769;DHT22;7476;49.404;11.152;2023-08-06T08:39:16;18.40;99.90
14769;DHT22;7476;49.404;11.152;2023-08-06T08:41:42;17.30;99.90
14769;DHT22;7476;49.404;11.152;2023-08-06T08:44:10;16.70;99.90
14769;DHT22;7476;49.404;11.152;2023-08-06T08:46:40;16.40;99.90
14769;DHT22;7476;49.404;11.152;2023-08-06T08:49:08;16.50;99.90
14769;DHT22;7476;49.404;11.152;2023-08-06T08:51:35;16.70;99.90
14769;DHT22;7476;49.404;11.152;2023-08-06T08:54:03;16.60;99.90
14769;DHT22;7476;49.404;11.152;2023-08-06T08:56:30;16.60;99.90
14769;DHT22;7476;49.404;11.152;2023-08-06T08:58:57;16.60;99.90
14769;DHT22;7476;49.404;11.152;2023-08-06T09:01:24;16.60;99.90
14769;DHT22;7476;49.404;11.152;2023-08-06T09:03:51;16.90;99.90
14769;DHT22;7476;49.404;11.152;2023-08-06T09:06:21;17.50;99.90
14769;DHT22;7476;49.404;11.152;2023-08-06T09:08:53;17.90;99.90
14769;DHT22;7476;49.404;11.152;2023-08-06T09:11:21;17.90;99.90
14769;DHT22;7476;49.404;11.152;2023-08-06T09:13:48;17.40;99.90
14769;DHT22;7476;49.404;11.152;2023-08-06T09:16:15;17.30;99.90
14769;DHT22;7476;49.404;11.152;2023-08-06T09:18:41;17.60;99.90
14769;DHT22;7476;49.404;11.152;2023-08-06T09:21:13;17.70;99.90
14769;DHT22;7476;49.404;11.152;2023-08-06T09:23:42;17.90;99.90
14769;DHT22;7476;49.404;11.152;2023-08-06T09:26:11;18.10;99.90
14769;DHT22;7476;49.404;11.152;2023-08-06T09:28:39;18.50;99.90
14769;DHT22;7476;49.404;11.152;2023-08-06T09:31:08;19.20;99.90
14769;DHT22;7476;49.404;11.152;2023-08-06T09:33:36;19.70;99.90
14769;DHT22;7476;49.404;11.152;2023-08-06T09:36:10;20.60;99.90
14769;DHT22;7476;49.404;11.152;2023-08-06T09:38:41;20.90;99.90
14769;DHT22;7476;49.404;11.152;2023-08-06T09:41:08;20.60;99.90
14769;DHT22;7476;49.404;11.152;2023-08-06T09:43:41;19.80;99.90
14769;DHT22;7476;49.404;11.152;2023-08-06T09:46:12;19.70;99.90
14769;DHT22;7476;49.404;11.152;2023-08-06T09:48:39;19.30;99.90
14769;DHT22;7476;49.404;11.152;2023-08-06T09:51:08;19.00;99.90
14769;DHT22;7476;49.404;11.152;2023-08-06T09:53:36;19.20;99.90
14769;DHT22;7476;49.404;11.152;2023-08-06T09:56:05;19.50;99.90
14769;DHT22;7476;49.404;11.152;2023-08-06T09:58:32;19.60;99.90
14769;DHT22;7476;49.404;11.152;2023-08-06T10:00:59;19.90;99.90
14769;DHT22;7476;49.404;11.152;2023-08-06T10:03:29;19.50;99.90
14769;DHT22;7476;49.404;11.152;2023-08-06T10:05:56;19.10;99.90
14769;DHT22;7476;49.404;11.152;2023-08-06T10:08:24;18.80;99.90
14769;DHT22;7476;49.404;11.152;2023-08-06T10:10:50;18.90;99.90
14769;DHT22;7476;49.404;11.152;2023-08-06T10:13:19;18.90;99.90
14769;DHT22;7476;49.404;11.152;2023-08-06T10:15:47;18.70;99.90
14769;DHT22;7476;49.404;11.152;2023-08-06T10:18:16;18.70;99.90
14769;DHT22;7476;49.404;11.152;2023-08-06T10:20:46;18.40;99.90
14769;DHT22;7476;49.404;11.152;2023-08-06T10:23:13;18.40;99.90
14769;DHT22;7476;49.404;11.152;2023-08-06T10:25:41;18.20;99.90
14769;DHT22;7476;49.404;11.152;2023-08-06T10:28:08;18.20;99.90
14769;DHT22;7476;49.404;11.152;2023-08-06T10:30:42;18.40;99.90
14769;DHT22;7476;49.404;11.152;2023-08-06T10:33:10;18.60;99.90
14769;DHT22;7476;49.404;11.152;2023-08-06T10:35:38;18.60;99.90
14769;DHT22;7476;49.404;11.152;2023-08-06T10:38:07;18.70;99.90
14769;DHT22;7476;49.404;11.152;2023-08-06T10:40:34;18.60;99.90
14769;DHT22;7476;49.404;11.152;2023-08-06T10:43:02;18.40;99.90
14769;DHT22;7476;49.404;11.152;2023-08-06T10:45:29;18.20;99.90
14769;DHT22;7476;49.404;11.152;2023-08-06T10:47:57;18.00;99.90
14769;DHT22;7476;49.404;11.152;2023-08-06T10:50:24;17.80;99.90
14769;DHT22;7476;49.404;11.152;2023-08-06T10:52:51;17.80;99.90
14769;DHT22;7476;49.404;11.152;2023-08-06T10:55:26;18.30;99.90
14769;DHT22;7476;49.404;11.152;2023-08-06T10:57:53;18.90;99.90
14769;DHT22;7476;49.404;11.152;2023-08-06T11:00:21;18.80;99.90
14769;DHT22;7476;49.404;11.152;2023-08-06T11:02:48;18.40;99.90
14769;DHT22;7476;49.404;11.152;2023-08-06T11:05:17;18.00;99.90
14769;DHT22;7476;49.404;11.152;2023-08-06T11:07:44;18.10;99.90
14769;DHT22;7476;49.404;11.152;2023-08-06T11:10:13;18.20;99.90
14769;DHT22;7476;49.404;11.152;2023-08-06T11:12:40;18.00;99.90
14769;DHT22;7476;49.404;11.152;2023-08-06T11:15:08;17.80;99.90
14769;DHT22;7476;49.404;11.152;2023-08-06T11:17:35;17.60;99.90
14769;DHT22;7476;49.404;11.152;2023-08-06T11:20:03;18.40;99.90
14769;DHT22;7476;49.404;11.152;2023-08-06T11:22:31;19.40;99.90
14769;DHT22;7476;49.404;11.152;2023-08-06T11:24:58;20.20;99.90
14769;DHT22;7476;49.404;11.152;2023-08-06T11:27:27;20.40;99.90
14769;DHT22;7476;49.404;11.152;2023-08-06T11:29:54;20.50;99.90
14769;DHT22;7476;49.404;11.152;2023-08-06T11:32:20;20.70;99.90
14769;DHT22;7476;49.404;11.152;2023-08-06T11:34:47;20.40;99.90
14769;DHT22;7476;49.404;11.152;2023-08-06T11:37:14;20.00;99.90
14769;DHT22;7476;49.404;11.152;2023-08-06T11:39:46;19.80;99.90
14769;DHT22;7476;49.404;11.152;2023-08-06T11:42:13;20.30;99.90
14769;DHT22;7476;49.404;11.152;2023-08-06T11:44:41;20.60;99.90
14769;DHT22;7476;49.404;11.152;2023-08-06T11:47:12;20.20;99.90
14769;DHT22;7476;49.404;11.152;2023-08-06T11:49:40;19.30;99.90
14769;DHT22;7476;49.404;11.152;2023-08-06T11:52:19;18.40;99.90
14769;DHT22;7476;49.404;11.152;2023-08-06T11:55:01;18.00;99.90
14769;DHT22;7476;49.404;11.152;2023-08-06T11:57:29;17.80;99.90
14769;DHT22;7476;49.404;11.152;2023-08-06T12:00:00;18.20;99.90
14769;DHT22;7476;49.404;11.152;2023-08-06T12:02:31;18.60;99.90
14769;DHT22;7476;49.404;11.152;2023-08-06T12:05:00;18.80;99.90
14769;DHT22;7476;49.404;11.152;2023-08-06T12:07:28;18.80;99.90
14769;DHT22;7476;49.404;11.152;2023-08-06T12:09:57;19.00;99.90
14769;DHT22;7476;49.404;11.152;2023-08-06T12:12:23;20.30;99.90
14769;DHT22;7476;49.404;11.152;2023-08-06T12:14:50;21.20;99.90
14769;DHT22;7476;49.404;11.152;2023-08-06T12:17:17;20.70;99.90
14769;DHT22;7476;49.404;11.152;2023-08-06T12:19:45;19.50;99.90
14769;DHT22;7476;49.404;11.152;2023-08-06T12:22:12;17.90;99.90
14769;DHT22;7476;49.404;11.152;2023-08-06T12:24:39;17.00;99.90
14769;DHT22;7476;49.404;11.152;2023-08-06T12:27:08;16.80;99.90
14769;DHT22;7476;49.404;11.152;2023-08-06T12:29:34;17.00;99.90
14769;DHT22;7476;49.404;11.152;2023-08-06T12:32:01;17.40;99.90
14769;DHT22;7476;49.404;11.152;2023-08-06T12:34:28;17.60;99.90
14769;DHT22;7476;49.404;11.152;2023-08-06T12:36:54;18.00;99.90
14769;DHT22;7476;49.404;11.152;2023-08-06T12:39:21;19.00;99.90
14769;DHT22;7476;49.404;11.152;2023-08-06T12:41:48;19.50;99.90
14769;DHT22;7476;49.404;11.152;2023-08-06T12:44:16;19.40;99.90
14769;DHT22;7476;49.404;11.152;2023-08-06T12:46:42;20.00;99.90
14769;DHT22;7476;49.404;11.152;2023-08-06T12:49:09;19.90;99.90
14769;DHT22;7476;49.404;11.152;2023-08-06T12:51:35;19.30;99.90
14769;DHT22;7476;49.404;11.152;2023-08-06T12:54:02;20.00;99.90
14769;DHT22;7476;49.404;11.152;2023-08-06T12:56:29;21.00;99.90
14769;DHT22;7476;49.404;11.152;2023-08-06T12:58:55;21.10;99.90
14769;DHT22;7476;49.404;11.152;2023-08-06T13:01:23;20.70;99.90
14769;DHT22;7476;49.404;11.152;2023-08-06T13:03:50;20.70;99.90
14769;DHT22;7476;49.404;11.152;2023-08-06T13:06:17;20.80;99.90
14769;DHT22;7476;49.404;11.152;2023-08-06T13:08:43;20.80;99.90
14769;DHT22;7476;49.404;11.152;2023-08-06T13:11:10;20.70;99.90
14769;DHT22;7476;49.404;11.152;2023-08-06T13:13:37;20.80;99.90
14769;DHT22;7476;49.404;11.152;2023-08-06T13:16:04;19.70;99.90
14769;DHT22;7476;49.404;11.152;2023-08-06T13:18:32;18.60;99.90
14769;DHT22;7476;49.404;11.152;2023-08-06T13:20:58;18.00;99.90
14769;DHT22;7476;49.404;11.152;2023-08-06T13:23:25;18.50;99.90
14769;DHT22;7476;49.404;11.152;2023-08-06T13:25:53;19.20;99.90
14769;DHT22;7476;49.404;11.152;2023-08-06T13:28:20;19.60;99.90
14769;DHT22;7476;49.404;11.152;2023-08-06T13:30:47;19.90;99.90
14769;DHT22;7476;49.404;11.152;2023-08-06T13:33:14;19.90;99.90
14769;DHT22;7476;49.404;11.152;2023-08-06T13:35:41;19.20;99.90
14769;DHT22;7476;49.404;11.152;2023-08-06T13:38:08;18.90;99.90
14769;DHT22;7476;49.404;11.152;2023-08-06T13:40:35;18.60;99.90
14769;DHT22;7476;49.404;11.152;2023-08-06T13:43:02;18.30;99.90
14769;DHT22;7476;49.404;11.152;2023-08-06T13:45:28;18.20;99.90
14769;DHT22;7476;49.404;11.152;2023-08-06T13:47:56;18.10;99.90
14769;DHT22;7476;49.404;11.152;2023-08-06T13:50:23;18.00;99.90
14769;DHT22;7476;49.404;11.152;2023-08-06T13:52:52;18.30;99.90
14769;DHT22;7476;49.404;11.152;2023-08-06T13:55:21;17.90;99.90
14769;DHT22;7476;49.404;11.152;2023-08-06T13:57:47;17.80;99.90
14769;DHT22;7476;49.404;11.152;2023-08-06T14:00:14;17.60;99.90
14769;DHT22;7476;49.404;11.152;2023-08-06T14:02:41;17.40;99.90
14769;DHT22;7476;49.404;11.152;2023-08-06T14:05:09;17.30;99.90
14769;DHT22;7476;49.404;11.152;2023-08-06T14:07:36;17.20;99.90
14769;DHT22;7476;49.404;11.152;2023-08-06T14:10:05;17.10;99.90
14769;DHT22;7476;49.404;11.152;2023-08-06T14:12:32;16.90;99.90
14769;DHT22;7476;49.404;11.152;2023-08-06T14:14:58;16.60;99.90
14769;DHT22;7476;49.404;11.152;2023-08-06T14:17:25;16.30;99.90
14769;DHT22;7476;49.404;11.152;2023-08-06T14:19:52;16.00;99.90
14769;DHT22;7476;49.404;11.152;2023-08-06T14:22:19;15.60;99.90
14769;DHT22;7476;49.404;11.152;2023-08-06T14:24:45;15.40;99.90
14769;DHT22;7476;49.404;11.152;2023-08-06T14:27:14;15.30;99.90
14769;DHT22;7476;49.404;11.152;2023-08-06T14:29:41;15.20;99.90
14769;DHT22;7476;49.404;11.152;2023-08-06T14:32:07;15.00;99.90
14769;DHT22;7476;49.404;11.152;2023-08-06T14:34:34;14.90;99.90
14769;DHT22;7476;49.404;11.152;2023-08-06T14:37:00;14.80;99.90
14769;DHT22;7476;49.404;11.152;2023-08-06T14:39:27;14.80;99.90
14769;DHT22;7476;49.404;11.152;2023-08-06T14:41:54;14.80;99.90
14769;DHT22;7476;49.404;11.152;2023-08-06T14:44:22;14.70;99.90
14769;DHT22;7476;49.404;11.152;2023-08-06T14:46:48;14.70;99.90
14769;DHT22;7476;49.404;11.152;2023-08-06T14:49:15;14.70;99.90
14769;DHT22;7476;49.404;11.152;2023-08-06T14:51:41;14.80;99.90
14769;DHT22;7476;49.404;11.152;2023-08-06T14:54:08;14.80;99.90
14769;DHT22;7476;49.404;11.152;2023-08-06T14:56:35;14.90;99.90
14769;DHT22;7476;49.404;11.152;2023-08-06T14:59:01;14.80;99.90
14769;DHT22;7476;49.404;11.152;2023-08-06T15:01:29;14.80;99.90
14769;DHT22;7476;49.404;11.152;2023-08-06T15:03:56;14.90;99.90
14769;DHT22;7476;49.404;11.152;2023-08-06T15:06:23;15.10;99.90
14769;DHT22;7476;49.404;11.152;2023-08-06T15:08:49;15.20;99.90
14769;DHT22;7476;49.404;11.152;2023-08-06T15:11:16;15.40;99.90
14769;DHT22;7476;49.404;11.152;2023-08-06T15:13:43;15.50;99.90
14769;DHT22;7476;49.404;11.152;2023-08-06T15:16:09;15.70;99.90
14769;DHT22;7476;49.404;11.152;2023-08-06T15:18:37;15.90;99.90
14769;DHT22;7476;49.404;11.152;2023-08-06T15:21:04;15.90;99.90
14769;DHT22;7476;49.404;11.152;2023-08-06T15:23:30;15.90;99.90
14769;DHT22;7476;49.404;11.152;2023-08-06T15:25:57;15.80;99.90
14769;DHT22;7476;49.404;11.152;2023-08-06T15:28:24;15.80;99.90
14769;DHT22;7476;49.404;11.152;2023-08-06T15:30:51;15.80;99.90